createdAt,value
2017-09-03T00:01:48.049Z,17.10
2017-09-03T00:04:15.538Z,17.10
2017-09-03T00:06:43.069Z,17.10
2017-09-03T00:09:10.600Z,17.10
2017-09-03T00:11:38.118Z,17.10
2017-09-03T00:14:06.025Z,17.00
2017-09-03T00:16:33.558Z,17.00
2017-09-03T00:19:01.069Z,17.10
2017-09-03T00:21:28.590Z,17.10
2017-09-03T00:23:56.137Z,17.20
2017-09-03T00:26:23.664Z,17.10
2017-09-03T00:28:51.166Z,17.10
2017-09-03T00:31:18.704Z,17.00
2017-09-03T00:33:46.237Z,17.00
2017-09-03T00:36:13.773Z,17.00
2017-09-03T00:38:41.360Z,17.00
2017-09-03T00:41:08.857Z,17.10
2017-09-03T00:43:36.381Z,17.00
2017-09-03T00:46:04.027Z,16.90
2017-09-03T00:48:32.362Z,16.90
2017-09-03T00:50:59.870Z,16.90
2017-09-03T00:53:27.454Z,16.80
2017-09-03T00:55:54.949Z,16.80
2017-09-03T00:58:22.435Z,16.70
2017-09-03T01:00:49.969Z,16.70
2017-09-03T01:03:17.518Z,16.60
2017-09-03T01:05:46.101Z,16.70
2017-09-03T01:08:14.416Z,16.60
2017-09-03T01:10:42.052Z,16.60
2017-09-03T01:13:09.542Z,16.60
2017-09-03T01:15:37.129Z,16.50
2017-09-03T01:18:04.662Z,16.50
2017-09-03T01:20:32.218Z,16.50
2017-09-03T01:22:59.731Z,16.50
2017-09-03T01:25:27.257Z,16.40
2017-09-03T01:27:54.797Z,16.50
2017-09-03T01:30:22.295Z,16.50
2017-09-03T01:32:49.963Z,16.50
2017-09-03T01:35:17.477Z,16.40
2017-09-03T01:37:44.995Z,16.40
2017-09-03T01:40:12.535Z,16.40
2017-09-03T01:42:40.084Z,16.40
2017-09-03T01:45:07.575Z,16.40
2017-09-03T01:47:35.084Z,16.40
2017-09-03T01:50:02.736Z,16.40
2017-09-03T01:52:30.235Z,16.30
2017-09-03T01:54:57.736Z,16.40
2017-09-03T01:57:25.279Z,16.40
2017-09-03T01:59:52.813Z,16.40
2017-09-03T02:02:20.385Z,16.30
2017-09-03T02:04:48.014Z,16.40
2017-09-03T02:07:15.525Z,16.30
2017-09-03T02:09:43.015Z,16.40
2017-09-03T02:12:10.654Z,16.40
2017-09-03T02:14:38.159Z,16.40
2017-09-03T02:17:05.648Z,16.30
2017-09-03T02:19:33.239Z,16.30
2017-09-03T02:22:00.746Z,16.30
2017-09-03T02:24:28.245Z,16.30
2017-09-03T02:26:55.764Z,16.30
2017-09-03T02:29:23.256Z,16.30
2017-09-03T02:31:51.580Z,16.30
2017-09-03T02:34:19.132Z,16.20
2017-09-03T02:36:46.653Z,16.30
2017-09-03T02:39:14.206Z,16.30
2017-09-03T02:41:41.743Z,16.30
2017-09-03T02:44:09.270Z,16.30
2017-09-03T02:46:36.794Z,16.30
2017-09-03T02:49:04.464Z,16.20
2017-09-03T02:51:32.103Z,16.30
2017-09-03T02:53:59.610Z,16.30
2017-09-03T02:56:27.102Z,16.30
2017-09-03T02:58:54.696Z,16.30
2017-09-03T03:01:22.199Z,16.30
2017-09-03T03:03:49.923Z,16.30
2017-09-03T03:06:17.472Z,16.20
2017-09-03T03:08:45.055Z,16.10
2017-09-03T03:11:12.604Z,16.10
2017-09-03T03:13:41.970Z,16.10
2017-09-03T03:16:09.514Z,16.10
2017-09-03T03:18:37.095Z,16.10
2017-09-03T03:21:04.622Z,16.20
2017-09-03T03:23:32.121Z,16.20
2017-09-03T03:25:59.668Z,16.20
2017-09-03T03:28:27.201Z,16.10
2017-09-03T03:30:54.706Z,16.20
2017-09-03T03:33:22.259Z,16.10
2017-09-03T03:35:49.824Z,16.10
2017-09-03T03:38:17.338Z,16.10
2017-09-03T03:40:44.865Z,16.00
2017-09-03T03:43:12.363Z,16.00
2017-09-03T03:45:39.877Z,16.00
2017-09-03T03:48:07.393Z,16.00
2017-09-03T03:50:34.949Z,16.00
2017-09-03T03:53:02.493Z,16.00
2017-09-03T03:55:29.997Z,16.00
2017-09-03T03:57:57.636Z,16.00
2017-09-03T04:00:25.162Z,16.00
2017-09-03T04:02:52.649Z,16.00
2017-09-03T04:05:20.685Z,15.90
2017-09-03T04:07:48.183Z,15.90
2017-09-03T04:10:15.779Z,15.90
2017-09-03T04:12:43.328Z,15.90
2017-09-03T04:15:11.608Z,15.90
2017-09-03T04:17:39.114Z,16.00
2017-09-03T04:20:06.789Z,16.00
2017-09-03T04:22:34.288Z,16.10
2017-09-03T04:25:01.807Z,16.00
2017-09-03T04:27:29.332Z,16.10
2017-09-03T04:29:56.926Z,16.10
2017-09-03T04:32:24.479Z,16.10
2017-09-03T04:34:51.988Z,16.10
2017-09-03T04:37:19.525Z,16.20
2017-09-03T04:39:47.055Z,16.10
2017-09-03T04:42:14.726Z,16.10
2017-09-03T04:44:42.253Z,16.00
2017-09-03T04:47:09.764Z,15.90
2017-09-03T04:49:37.302Z,15.80
2017-09-03T04:52:04.817Z,15.80
2017-09-03T04:54:32.326Z,15.70
2017-09-03T04:56:59.867Z,15.60
2017-09-03T04:59:27.375Z,15.70
2017-09-03T05:01:54.911Z,15.70
2017-09-03T05:04:22.466Z,15.60
2017-09-03T05:06:49.987Z,15.70
2017-09-03T05:09:17.490Z,15.70
2017-09-03T05:11:45.056Z,15.60
2017-09-03T05:14:12.549Z,15.60
2017-09-03T05:16:40.039Z,15.70
2017-09-03T05:19:07.547Z,15.50
2017-09-03T05:21:35.922Z,15.50
2017-09-03T05:24:03.415Z,15.60
2017-09-03T05:26:30.958Z,15.60
2017-09-03T05:28:58.542Z,15.60
2017-09-03T05:31:26.080Z,15.60
2017-09-03T05:33:53.615Z,15.70
2017-09-03T05:36:21.181Z,15.70
2017-09-03T05:38:48.689Z,15.70
2017-09-03T05:41:16.288Z,15.80
2017-09-03T05:43:43.798Z,15.70
2017-09-03T05:46:11.303Z,15.70
2017-09-03T05:48:38.843Z,15.70
2017-09-03T05:51:06.365Z,15.60
2017-09-03T05:53:33.885Z,15.70
2017-09-03T05:56:01.416Z,15.70
2017-09-03T05:58:28.967Z,15.70
2017-09-03T06:00:56.468Z,15.70
2017-09-03T06:03:23.965Z,15.80
2017-09-03T06:05:51.508Z,15.80
2017-09-03T06:08:19.007Z,15.80
2017-09-03T06:10:46.537Z,15.80
2017-09-03T06:13:14.040Z,15.70
2017-09-03T06:15:42.338Z,15.60
2017-09-03T06:18:09.851Z,15.60
2017-09-03T06:20:37.416Z,15.60
2017-09-03T06:23:04.948Z,15.60
2017-09-03T06:25:32.473Z,15.70
2017-09-03T06:28:00.008Z,15.60
2017-09-03T06:30:27.496Z,15.60
2017-09-03T06:35:28.924Z,15.60
2017-09-03T06:37:57.107Z,15.60
2017-09-03T06:40:25.376Z,15.50
2017-09-03T06:42:53.059Z,15.50
2017-09-03T06:45:20.588Z,15.50
2017-09-03T06:47:48.074Z,15.50
2017-09-03T06:50:15.703Z,15.40
2017-09-03T06:52:43.213Z,15.50
2017-09-03T06:55:12.065Z,15.60
2017-09-03T06:57:39.607Z,15.50
2017-09-03T07:00:07.118Z,15.60
2017-09-03T07:02:34.665Z,15.70
2017-09-03T07:05:02.585Z,15.60
2017-09-03T07:07:30.084Z,15.60
2017-09-03T07:09:57.613Z,15.60
2017-09-03T07:12:25.600Z,15.50
2017-09-03T07:14:53.962Z,15.70
2017-09-03T07:17:21.525Z,15.60
2017-09-03T07:19:49.048Z,15.80
2017-09-03T07:22:16.538Z,15.70
2017-09-03T07:24:44.068Z,15.60
2017-09-03T07:27:11.573Z,15.60
2017-09-03T07:29:39.147Z,15.70
2017-09-03T07:32:06.653Z,15.50
2017-09-03T07:34:34.244Z,15.50
2017-09-03T07:37:01.755Z,15.50
2017-09-03T07:39:29.303Z,15.50
2017-09-03T07:41:56.790Z,15.60
2017-09-03T07:44:24.299Z,15.50
2017-09-03T07:46:51.900Z,15.50
2017-09-03T07:49:19.475Z,15.60
2017-09-03T07:51:47.237Z,15.70
2017-09-03T07:54:14.753Z,15.70
2017-09-03T07:56:43.059Z,15.80
2017-09-03T07:59:10.726Z,15.70
2017-09-03T08:01:38.246Z,15.80
2017-09-03T08:04:05.764Z,15.80
2017-09-03T08:06:33.345Z,15.90
2017-09-03T08:09:00.924Z,16.00
2017-09-03T08:11:28.438Z,16.00
2017-09-03T08:13:56.004Z,16.10
2017-09-03T08:16:23.509Z,16.20
2017-09-03T08:18:51.001Z,16.20
2017-09-03T08:21:19.319Z,16.30
2017-09-03T08:23:46.818Z,16.30
2017-09-03T08:26:15.263Z,16.20
2017-09-03T08:28:42.776Z,16.10
2017-09-03T08:31:10.297Z,16.20
2017-09-03T08:33:37.832Z,16.00
2017-09-03T08:36:05.355Z,16.00
2017-09-03T08:38:32.874Z,16.00
2017-09-03T08:41:00.381Z,16.00
2017-09-03T08:43:27.898Z,15.90
2017-09-03T08:45:55.407Z,15.90
2017-09-03T08:48:22.916Z,15.90
2017-09-03T08:50:50.421Z,16.00
2017-09-03T08:53:17.945Z,16.00
2017-09-03T08:55:46.243Z,16.10
2017-09-03T08:58:13.757Z,16.10
2017-09-03T09:00:41.314Z,16.20
2017-09-03T09:03:08.813Z,16.20
2017-09-03T09:05:36.368Z,16.30
2017-09-03T09:08:03.866Z,16.20
2017-09-03T09:10:31.375Z,16.30
2017-09-03T09:12:58.925Z,16.30
2017-09-03T09:15:26.483Z,16.30
2017-09-03T09:17:54.065Z,16.30
2017-09-03T09:20:21.582Z,16.40
2017-09-03T09:22:49.170Z,16.40
2017-09-03T09:25:16.793Z,16.40
2017-09-03T09:27:44.302Z,16.50
2017-09-03T09:30:12.031Z,16.50
2017-09-03T09:32:39.560Z,16.60
2017-09-03T09:35:07.049Z,16.50
2017-09-03T09:37:34.589Z,16.50
2017-09-03T09:40:02.155Z,16.50
2017-09-03T09:42:30.570Z,16.50
2017-09-03T09:44:58.161Z,16.60
2017-09-03T09:47:25.668Z,16.70
2017-09-03T09:49:54.092Z,16.70
2017-09-03T09:52:21.651Z,16.70
2017-09-03T09:54:49.731Z,16.60
2017-09-03T09:57:17.259Z,16.60
2017-09-03T09:59:44.826Z,16.70
2017-09-03T10:02:12.343Z,16.80
2017-09-03T10:04:39.871Z,16.80
2017-09-03T10:07:07.371Z,16.90
2017-09-03T10:09:35.303Z,16.90
2017-09-03T10:12:02.862Z,16.70
2017-09-03T10:14:30.416Z,16.60
2017-09-03T10:16:57.929Z,16.80
2017-09-03T10:19:25.433Z,16.80
2017-09-03T10:21:52.973Z,16.80
2017-09-03T10:24:20.513Z,16.80
2017-09-03T10:26:48.077Z,16.80
2017-09-03T10:29:15.573Z,16.70
2017-09-03T10:31:43.133Z,16.70
2017-09-03T10:34:10.639Z,16.80
2017-09-03T10:36:39.190Z,16.90
2017-09-03T10:39:06.823Z,16.80
2017-09-03T10:41:34.366Z,16.80
2017-09-03T10:44:01.884Z,16.90
2017-09-03T10:46:29.424Z,17.00
2017-09-03T10:48:56.959Z,17.10
2017-09-03T10:51:24.524Z,17.10
2017-09-03T10:53:54.470Z,17.10
2017-09-03T10:56:21.975Z,17.20
2017-09-03T10:58:49.479Z,17.20
2017-09-03T11:01:17.058Z,17.30
2017-09-03T11:03:52.784Z,17.10
2017-09-03T11:06:22.204Z,16.90
2017-09-03T11:08:50.367Z,17.00
2017-09-03T11:11:19.267Z,17.10
2017-09-03T11:13:46.804Z,17.40
2017-09-03T11:16:16.752Z,17.50
2017-09-03T11:18:46.057Z,17.70
2017-09-03T11:21:13.565Z,17.80
2017-09-03T11:23:41.140Z,17.90
2017-09-03T11:26:11.304Z,17.90
2017-09-03T11:28:38.855Z,17.90
2017-09-03T11:31:09.203Z,17.90
2017-09-03T11:33:36.744Z,18.00
2017-09-03T11:36:04.267Z,18.00
2017-09-03T11:38:33.060Z,18.00
2017-09-03T11:41:00.586Z,17.90
2017-09-03T11:43:28.136Z,18.00
2017-09-03T11:45:55.641Z,18.00
2017-09-03T11:48:23.217Z,18.10
2017-09-03T11:50:50.921Z,18.10
2017-09-03T11:53:18.463Z,18.20
2017-09-03T11:55:46.309Z,18.20
2017-09-03T11:58:13.920Z,18.10
2017-09-03T12:00:41.511Z,18.20
2017-09-03T12:03:09.024Z,18.20
2017-09-03T12:05:36.560Z,18.30
2017-09-03T12:08:04.052Z,18.30
2017-09-03T12:10:31.552Z,18.50
2017-09-03T12:12:59.108Z,18.60
2017-09-03T12:15:26.600Z,18.50
2017-09-03T12:17:54.112Z,18.40
2017-09-03T12:20:21.692Z,18.30
2017-09-03T12:22:49.250Z,18.30
2017-09-03T12:25:16.761Z,18.40
2017-09-03T12:27:44.290Z,18.40
2017-09-03T12:30:11.802Z,18.50
2017-09-03T12:32:39.358Z,18.50
2017-09-03T12:35:06.944Z,18.50
2017-09-03T12:37:34.452Z,18.70
2017-09-03T12:40:02.021Z,18.70
2017-09-03T12:42:29.551Z,18.60
2017-09-03T12:44:57.050Z,18.60
2017-09-03T12:47:24.605Z,18.60
2017-09-03T12:49:52.113Z,18.50
2017-09-03T12:52:19.625Z,18.40
2017-09-03T12:54:47.145Z,18.40
2017-09-03T12:57:14.721Z,18.50
2017-09-03T12:59:42.268Z,18.40
2017-09-03T13:02:09.791Z,18.40
2017-09-03T13:04:37.870Z,18.30
2017-09-03T13:07:05.383Z,18.30
2017-09-03T13:09:32.924Z,18.40
2017-09-03T13:12:00.427Z,18.40
2017-09-03T13:14:28.013Z,18.50
2017-09-03T13:16:55.614Z,18.50
2017-09-03T13:19:23.154Z,18.50
2017-09-03T13:21:51.127Z,18.40
2017-09-03T13:24:18.680Z,18.40
2017-09-03T13:26:46.268Z,18.40
2017-09-03T13:29:13.832Z,18.40
2017-09-03T13:31:41.696Z,18.40
2017-09-03T13:34:09.252Z,18.40
2017-09-03T13:36:36.824Z,18.40
2017-09-03T13:39:04.730Z,18.30
2017-09-03T13:41:32.253Z,18.30
2017-09-03T13:43:59.842Z,18.30
2017-09-03T13:46:27.328Z,18.30
2017-09-03T13:48:54.849Z,18.20
2017-09-03T13:51:22.401Z,18.20
2017-09-03T13:53:49.936Z,18.30
2017-09-03T13:56:17.493Z,18.20
2017-09-03T13:58:45.071Z,18.20
2017-09-03T14:01:12.610Z,18.30
2017-09-03T14:03:40.167Z,18.20
2017-09-03T14:06:08.535Z,18.30
2017-09-03T14:08:36.042Z,18.30
2017-09-03T14:11:03.621Z,18.30
2017-09-03T14:13:31.759Z,18.30
2017-09-03T14:15:59.288Z,18.40
2017-09-03T14:18:26.821Z,18.50
2017-09-03T14:20:54.331Z,18.60
2017-09-03T14:23:21.850Z,18.70
2017-09-03T14:25:49.478Z,18.60
2017-09-03T14:28:17.045Z,18.60
2017-09-03T14:30:44.568Z,18.70
2017-09-03T14:33:12.103Z,18.80
2017-09-03T14:35:39.633Z,18.90
2017-09-03T14:38:07.222Z,18.90
2017-09-03T14:40:34.752Z,18.90
2017-09-03T14:43:02.306Z,19.00
2017-09-03T14:45:29.806Z,19.00
2017-09-03T14:47:57.623Z,19.10
2017-09-03T14:50:25.836Z,19.10
2017-09-03T14:52:53.369Z,19.20
2017-09-03T14:55:20.985Z,19.30
2017-09-03T14:57:49.973Z,19.10
2017-09-03T15:00:17.517Z,19.10
2017-09-03T15:02:45.249Z,19.10
2017-09-03T15:05:12.795Z,19.10
2017-09-03T15:07:40.305Z,19.20
2017-09-03T15:10:08.087Z,19.30
2017-09-03T15:12:35.592Z,19.40
2017-09-03T15:15:03.421Z,19.30
2017-09-03T15:17:30.973Z,19.30
2017-09-03T15:19:58.493Z,19.30
2017-09-03T15:22:36.831Z,19.40
2017-09-03T15:25:05.212Z,19.40
2017-09-03T15:27:32.834Z,19.40
2017-09-03T15:30:00.350Z,19.50
2017-09-03T15:32:28.455Z,19.50
2017-09-03T15:34:56.001Z,19.60
2017-09-03T15:37:23.716Z,19.50
2017-09-03T15:39:51.204Z,19.40
2017-09-03T15:42:18.735Z,19.40
2017-09-03T15:44:46.288Z,19.50
2017-09-03T15:47:13.803Z,19.40
2017-09-03T15:49:41.379Z,19.40
2017-09-03T15:52:08.930Z,19.40
2017-09-03T15:54:36.489Z,19.40
2017-09-03T15:57:04.808Z,19.30
2017-09-03T15:59:32.325Z,19.30
2017-09-03T16:01:59.894Z,19.30
2017-09-03T16:04:27.394Z,19.20
2017-09-03T16:06:54.948Z,19.00
2017-09-03T16:09:22.527Z,18.70
2017-09-03T16:11:50.044Z,18.40
2017-09-03T16:14:17.655Z,18.30
2017-09-03T16:16:45.268Z,18.40
2017-09-03T16:19:12.751Z,18.60
2017-09-03T16:21:40.882Z,18.80
2017-09-03T16:24:08.429Z,18.80
2017-09-03T16:26:35.942Z,18.90
2017-09-03T16:29:03.606Z,19.00
2017-09-03T16:31:31.168Z,19.10
2017-09-03T16:33:58.742Z,19.10
2017-09-03T16:36:26.272Z,19.10
2017-09-03T16:38:53.817Z,19.00
2017-09-03T16:41:21.364Z,19.00
2017-09-03T16:43:49.003Z,18.90
2017-09-03T16:46:16.579Z,18.70
2017-09-03T16:48:47.916Z,18.50
2017-09-03T16:51:15.453Z,18.40
2017-09-03T16:53:43.033Z,18.40
2017-09-03T16:56:10.631Z,18.30
2017-09-03T16:58:39.799Z,18.20
2017-09-03T17:01:07.451Z,18.10
2017-09-03T17:03:35.933Z,18.00
2017-09-03T17:06:03.461Z,17.80
2017-09-03T17:08:36.881Z,17.80
2017-09-03T17:11:04.815Z,17.70
2017-09-03T17:13:32.363Z,17.70
2017-09-03T17:19:16.621Z,17.70
2017-09-03T17:21:44.164Z,17.70
2017-09-03T17:24:13.334Z,17.70
2017-09-03T17:26:59.978Z,17.70
2017-09-03T17:29:33.370Z,17.80
2017-09-03T17:32:06.679Z,17.80
2017-09-03T17:34:54.301Z,17.80
2017-09-03T17:37:25.590Z,17.80
2017-09-03T17:39:53.949Z,17.70
2017-09-03T17:42:23.381Z,17.70
2017-09-03T17:44:52.586Z,17.60
2017-09-03T17:47:20.106Z,17.50
2017-09-03T17:50:00.802Z,17.50
2017-09-03T17:52:33.241Z,17.50
2017-09-03T17:55:09.028Z,17.40
2017-09-03T17:57:38.069Z,17.50
2017-09-03T18:00:05.683Z,17.40
2017-09-03T18:02:33.318Z,17.30
2017-09-03T18:05:00.901Z,17.20
2017-09-03T18:07:28.497Z,17.30
2017-09-03T18:09:56.041Z,17.20
2017-09-03T18:12:24.290Z,17.20
2017-09-03T18:14:52.561Z,17.20
2017-09-03T18:17:20.887Z,17.20
2017-09-03T18:19:48.428Z,17.10
2017-09-03T18:22:15.969Z,17.10
2017-09-03T18:24:44.514Z,17.10
2017-09-03T18:27:12.949Z,17.10
2017-09-03T18:29:40.502Z,16.90
2017-09-03T18:32:08.986Z,16.80
2017-09-03T18:34:36.782Z,16.70
2017-09-03T18:37:11.021Z,16.70
2017-09-03T18:39:39.112Z,16.70
2017-09-03T18:45:08.347Z,16.70
2017-09-03T18:47:35.916Z,16.70
2017-09-03T18:50:11.799Z,16.60
2017-09-03T18:52:42.948Z,16.60
2017-09-03T18:55:11.284Z,16.70
2017-09-03T18:57:48.777Z,16.60
2017-09-03T19:00:16.371Z,16.70
2017-09-03T19:02:47.646Z,16.70
2017-09-03T19:05:16.383Z,16.60
2017-09-03T19:07:43.949Z,16.50
2017-09-03T19:10:12.142Z,16.50
2017-09-03T19:12:39.764Z,16.50
2017-09-03T19:15:10.421Z,16.40
2017-09-03T19:17:46.771Z,16.40
2017-09-03T19:20:17.678Z,16.40
2017-09-03T19:22:45.330Z,16.30
2017-09-03T19:25:12.991Z,16.40
2017-09-03T19:27:42.259Z,16.30
2017-09-03T19:30:10.882Z,16.30
2017-09-03T19:32:38.523Z,16.40
2017-09-03T19:35:08.552Z,16.40
2017-09-03T19:37:37.646Z,16.50
2017-09-03T19:40:05.246Z,16.50
2017-09-03T19:42:32.759Z,16.50
2017-09-03T19:45:00.982Z,16.50
2017-09-03T19:47:28.501Z,16.50
2017-09-03T19:49:56.077Z,16.50
2017-09-03T19:52:23.681Z,16.40
2017-09-03T19:54:52.599Z,16.40
2017-09-03T19:57:20.111Z,16.30
2017-09-03T19:59:47.627Z,16.20
2017-09-03T20:02:15.210Z,16.20
2017-09-03T20:04:42.739Z,16.10
2017-09-03T20:07:10.275Z,16.00
2017-09-03T20:09:39.870Z,16.00
2017-09-03T20:12:12.363Z,16.00
2017-09-03T20:14:39.873Z,15.80
2017-09-03T20:17:08.115Z,15.90
2017-09-03T20:19:35.674Z,15.80
2017-09-03T20:22:03.202Z,15.70
2017-09-03T20:24:31.633Z,15.60
2017-09-03T20:26:59.207Z,15.60
2017-09-03T20:29:27.307Z,15.50
2017-09-03T20:31:54.855Z,15.50
2017-09-03T20:34:22.430Z,15.50
2017-09-03T20:36:50.110Z,15.50
2017-09-03T20:39:17.685Z,15.40
2017-09-03T20:41:48.780Z,15.30
2017-09-03T20:44:16.301Z,15.20
2017-09-03T20:46:43.918Z,15.20
2017-09-03T20:49:11.444Z,15.20
2017-09-03T20:51:40.566Z,15.20
2017-09-03T20:54:10.836Z,15.10
2017-09-03T20:56:40.254Z,15.10
2017-09-03T20:59:07.915Z,15.10
2017-09-03T21:01:38.057Z,15.10
2017-09-03T21:04:11.919Z,15.20
2017-09-03T21:06:40.045Z,15.20
2017-09-03T21:09:07.576Z,15.10
2017-09-03T21:11:35.119Z,15.00
2017-09-03T21:14:02.657Z,15.10
2017-09-03T21:16:30.199Z,15.10
2017-09-03T21:18:57.736Z,15.10
2017-09-03T21:21:25.314Z,15.10
2017-09-03T21:23:52.823Z,15.20
2017-09-03T21:26:20.418Z,15.20
2017-09-03T21:28:47.982Z,15.30
2017-09-03T21:31:15.492Z,15.40
2017-09-03T21:33:42.983Z,15.40
2017-09-03T21:36:10.542Z,15.40
2017-09-03T21:38:38.077Z,15.40
2017-09-03T21:41:05.629Z,15.20
2017-09-03T21:43:33.159Z,15.10
2017-09-03T21:46:00.674Z,15.10
2017-09-03T21:48:28.221Z,15.10
2017-09-03T21:50:55.741Z,15.10
2017-09-03T21:53:23.284Z,15.00
2017-09-03T21:55:50.815Z,14.90
2017-09-03T21:58:18.587Z,14.80
2017-09-03T22:00:46.980Z,14.90
2017-09-03T22:03:14.559Z,14.90
2017-09-03T22:05:42.125Z,14.90
2017-09-03T22:08:09.757Z,14.90
2017-09-03T22:10:37.330Z,14.90
2017-09-03T22:13:04.890Z,14.90
2017-09-03T22:15:32.394Z,15.00
2017-09-03T22:18:00.806Z,15.00
2017-09-03T22:20:28.298Z,15.10
2017-09-03T22:22:58.577Z,15.00
2017-09-03T22:25:30.936Z,15.10
2017-09-03T22:27:59.616Z,14.90
2017-09-03T22:30:30.369Z,15.00
2017-09-03T22:32:57.886Z,14.90
2017-09-03T22:35:25.429Z,14.90
2017-09-03T22:37:52.971Z,14.90
2017-09-03T22:40:20.464Z,15.00
2017-09-03T22:42:48.003Z,14.90
2017-09-03T22:45:15.522Z,15.00
2017-09-03T22:47:43.036Z,15.00
2017-09-03T22:50:10.569Z,15.10
2017-09-03T22:52:38.080Z,15.00
2017-09-03T22:55:05.755Z,15.00
2017-09-03T22:57:33.261Z,15.00
2017-09-03T23:00:00.782Z,15.00
2017-09-03T23:02:28.307Z,15.00
2017-09-03T23:04:55.852Z,15.00
2017-09-03T23:07:23.377Z,14.90
2017-09-03T23:09:50.875Z,14.90
2017-09-03T23:12:18.393Z,14.90
2017-09-03T23:14:45.921Z,15.00
2017-09-03T23:17:13.461Z,15.00
2017-09-03T23:19:41.017Z,15.00
2017-09-03T23:22:08.626Z,15.10
2017-09-03T23:24:36.120Z,15.10
2017-09-03T23:27:03.636Z,15.10
2017-09-03T23:29:31.171Z,15.00
2017-09-03T23:31:58.653Z,15.00
2017-09-03T23:34:26.172Z,15.00
2017-09-03T23:36:53.716Z,15.00
2017-09-03T23:39:21.230Z,15.10
2017-09-03T23:41:48.720Z,15.10
2017-09-03T23:44:16.251Z,15.10
2017-09-03T23:46:43.791Z,15.00
2017-09-03T23:49:11.353Z,15.00
2017-09-03T23:51:38.884Z,15.00
2017-09-03T23:54:06.379Z,15.00
2017-09-03T23:56:33.925Z,15.10
2017-09-03T23:59:01.412Z,15.00
